Главная страница
METAR-TAF:

METAR-TAF

Аэропорты :

Manassas Regional Airport (Harry P. Davis Field)

Manassas, Виргиния, США

широта: 38-43N, долгота: 077-31W, высота над уровнем моря: 59 м

Текущие метеонаблюдения

Эта сводка был подготовлена 6 минут назад, в 10:56 UTC
Штиль
Температура 7°C
Влажность 100%
Давление 1025 hPa
Видимость: 16.1 км
ясное небо

METAR: KHEF 161056Z 00000KT 10SM CLR 07/07 A3026 RMK AO2 SLP253 T00720067

Время: 07:02 (11:02 UTC)


TAF: отсутствует

Метеонаблюдения и прогнозы для более 4000 аэропортов (сводки METAR и TAF).

Имеющиеся станции представлены на карте желтыми и красными точками.

Чтобы увидеть название станции, наведите на нее мышь.

Затем щелкните, чтобы увидеть метеонаблюдения и метеопрогнозы.

Управление картой: чтобы увеличить масштаб, щелкните зеленые кнопки с черным крестиком; чтобы уменьшить масштаб, щелкните зеленую кнопку с тире; для просмотра соседних карт щелкайте зеленые стрелки.


METAR-TAF: